Terminal Aerodrome Forecast
Issued by NWS

Home | Current Version | Previous Version | Text Only | Print | Product List | Glossary On
Versions: 1 2 3 4 5 6 7 8 9 10 11 12 13 14 15 16 17
000
FTUS45 KPSR 261700
TAFBLH
TAF
KBLH 261720Z 2618/2718 32008KT P6SM SKC
     FM270200 36003KT P6SM SKC
     FM271300 36014KT P6SM SKC=

USA.gov is the U.S. government's official web portal to all federal, state and local government web resources and services.